シドニー の空港の天気 - METARとTAF

シドニー国際空港 ( YSSY / SYD ) - オーストラリア ニューサウスウェールズ州、Mascot
飛行場実況気象(Metar)
観測時間12/06 20:30 AEDT (12/06 09:30 UTC)
風向・風速南東 4m/s
視程10km以上
天気現象
少しの雲 雲底高度 670m
全天の4割程度の雲 雲底高度 1520m
気温19℃
湿度68%
気圧1008hPa
METARYSSY 060930Z 14008KT 9999 FEW022 SCT050 19/13 Q1008
過去の天気等 Google飛行場航空写真 Wunderground天気予報

過去48時間のMETAR

飛行場予報(TAF)
発表時間: 12/06 19:10 AEDT (12/06 08:10 UTC)
予報対象時間: 6日20時 AEDT ~ 7日23時 AEDT
風向・風速東南東 6m/s
視程10km以上
全天の8割程度の雲 雲底高度 760m
6日23時 AEDT から
風向・風速北 4m/s
視程10km以上
全天の8割程度の雲 雲底高度 760m
7日5時 AEDT から
風向・風速北北西 4m/s
視程10km以上
全天の4割程度の雲 雲底高度 760m
7日12時 AEDT から
風向・風速東北東 7m/s
視程10km以上
なし
7日19時 AEDT から
風向・風速西北西 6m/s
視程10km以上
天気現象弱い雨
なし
TAF YSSY 060810Z 0609/0712 12012KT 9999 BKN025
FM061200 01008KT 9999 BKN025
FM061800 34008KT 9999 SCT025
FM070100 06014KT CAVOK
FM070800 30012KT 9999 -RA NSC